Time;durP1;ratioP1;P1;durP2;ratioP2;P2;SDS_P1;SDS_P2;PMS_P1;PMS_P2;Temp;Humidity;BMP_temperature;BMP_pressure;BME280_temperature;BME280_humidity;BME280_pressure;Samples;Min_cycle;Max_cycle;Signal;HPM_P1;HPM_P2
2023/07/16 00:02:06;;;;;;;20.00;3.60;;;17.20;81.00;;;;;;5052020;28;20720;-69
2023/07/16 00:04:33;;;;;;;15.30;4.63;;;17.30;81.10;;;;;;5047384;28;20187;-68
2023/07/16 00:07:01;;;;;;;14.80;3.90;;;17.30;80.50;;;;;;5052361;28;20187;-67
2023/07/16 00:09:29;;;;;;;20.37;4.30;;;17.40;80.10;;;;;;5050816;28;20187;-74
2023/07/16 00:11:57;;;;;;;13.93;3.90;;;17.40;80.00;;;;;;5053265;28;20226;-71
2023/07/16 00:14:25;;;;;;;13.70;4.10;;;17.50;80.10;;;;;;5058384;28;20242;-67
2023/07/16 00:16:52;;;;;;;12.17;3.60;;;17.70;79.30;;;;;;5050133;28;20672;-76
2023/07/16 00:19:19;;;;;;;18.40;4.10;;;17.70;79.00;;;;;;5050435;28;20187;-73
2023/07/16 00:21:47;;;;;;;19.77;4.13;;;17.70;78.80;;;;;;5055916;28;20179;-70
2023/07/16 00:30:31;;;;;;;14.60;3.70;;;18.10;78.00;;;;;;5624770;23;20287;-67
2023/07/16 00:32:59;;;;;;;11.83;3.30;;;18.10;77.90;;;;;;4980875;28;20293;-68
2023/07/16 00:35:26;;;;;;;14.80;3.23;;;18.20;77.70;;;;;;4984017;28;20182;-75
2023/07/16 00:37:53;;;;;;;18.40;3.47;;;18.10;77.00;;;;;;4993121;28;20701;-68
2023/07/16 00:40:20;;;;;;;17.40;3.47;;;18.00;77.60;;;;;;4988326;28;20175;-67
2023/07/16 00:42:48;;;;;;;21.67;4.27;;;17.90;77.80;;;;;;4991691;28;20651;-66
2023/07/16 00:45:15;;;;;;;14.70;3.67;;;17.90;77.40;;;;;;4991402;28;20561;-69
2023/07/16 00:47:44;;;;;;;15.03;4.77;;;18.00;77.10;;;;;;4992535;28;20189;-70
2023/07/16 00:50:12;;;;;;;18.10;3.33;;;18.00;77.70;;;;;;4986878;28;20231;-74
2023/07/16 00:52:40;;;;;;;15.60;3.50;;;17.90;77.30;;;;;;4979682;28;20313;-66
2023/07/16 00:55:08;;;;;;;13.07;3.90;;;17.90;77.70;;;;;;4987906;28;20194;-67
2023/07/16 00:57:36;;;;;;;11.23;3.67;;;17.90;77.00;;;;;;4990696;28;20643;-65
2023/07/16 01:00:04;;;;;;;11.27;3.17;;;17.90;77.30;;;;;;4995066;28;20615;-68
2023/07/16 01:02:31;;;;;;;22.10;3.70;;;17.80;77.30;;;;;;4993871;28;20691;-66
2023/07/16 01:04:59;;;;;;;16.47;3.57;;;17.90;77.50;;;;;;4990838;28;20193;-66
2023/07/16 01:07:29;;;;;;;9.90;2.87;;;17.80;77.40;;;;;;4991213;28;20200;-69
2023/07/16 01:09:56;;;;;;;14.63;3.17;;;18.00;77.20;;;;;;4993362;28;20189;-69
2023/07/16 01:12:26;;;;;;;17.93;3.97;;;18.20;77.10;;;;;;4988794;28;20217;-67
2023/07/16 01:14:54;;;;;;;12.57;3.13;;;18.20;76.80;;;;;;4994385;28;20178;-72
2023/07/16 01:17:22;;;;;;;16.30;3.17;;;18.30;76.10;;;;;;4992862;28;20177;-67
2023/07/16 01:19:50;;;;;;;14.73;3.53;;;18.40;75.60;;;;;;4995740;28;20674;-67
2023/07/16 01:22:51;;;;;;;17.60;3.53;;;18.50;75.40;;;;;;4993756;28;20676;-67
2023/07/16 01:25:52;;;;;;;9.73;2.70;;;18.60;75.30;;;;;;4993726;28;20670;-68
2023/07/16 01:28:29;;;;;;;14.87;2.90;;;18.50;74.90;;;;;;4983924;28;20659;-67
2023/07/16 01:30:59;;;;;;;13.87;3.33;;;18.50;74.80;;;;;;4994427;28;20225;-67
2023/07/16 01:33:27;;;;;;;17.33;3.60;;;18.50;74.70;;;;;;4991901;28;20222;-68
2023/07/16 01:35:54;;;;;;;18.10;3.83;;;18.50;75.20;;;;;;4991421;28;20692;-67
2023/07/16 01:38:23;;;;;;;19.57;3.77;;;18.60;75.20;;;;;;4992398;28;20639;-75
2023/07/16 01:40:50;;;;;;;15.13;3.57;;;18.70;75.30;;;;;;4989590;28;20551;-72
2023/07/16 01:43:17;;;;;;;11.87;3.33;;;18.60;75.20;;;;;;4994929;28;20193;-74
2023/07/16 01:45:45;;;;;;;18.40;3.93;;;18.60;75.10;;;;;;4992441;28;20170;-74
2023/07/16 01:48:35;;;;;;;14.87;3.67;;;18.60;75.40;;;;;;4994729;28;20186;-65
2023/07/16 01:51:03;;;;;;;13.60;3.63;;;18.70;75.10;;;;;;4993615;28;20178;-67
2023/07/16 01:53:34;;;;;;;12.47;3.03;;;18.70;74.80;;;;;;4991881;28;20612;-70
2023/07/16 01:56:04;;;;;;;16.50;3.20;;;18.60;75.00;;;;;;4994456;28;20208;-68
2023/07/16 01:58:31;;;;;;;12.07;3.23;;;18.50;75.00;;;;;;4994760;28;20236;-67
2023/07/16 02:00:59;;;;;;;14.20;3.13;;;18.50;75.20;;;;;;4989846;28;20652;-68
2023/07/16 02:03:26;;;;;;;17.97;3.17;;;18.40;75.00;;;;;;4992232;28;20201;-72
2023/07/16 02:05:53;;;;;;;17.30;3.13;;;18.40;75.60;;;;;;4993663;28;20193;-66
2023/07/16 02:08:21;;;;;;;14.87;3.67;;;18.30;75.30;;;;;;4991410;28;20189;-66
2023/07/16 02:10:51;;;;;;;15.33;3.63;;;18.30;75.50;;;;;;4994737;28;20219;-71
2023/07/16 02:13:18;;;;;;;18.93;3.60;;;18.30;75.70;;;;;;4993040;28;20276;-65
2023/07/16 02:15:46;;;;;;;13.50;3.77;;;18.30;75.60;;;;;;4993126;28;20633;-67
2023/07/16 02:18:13;;;;;;;12.93;3.53;;;18.30;75.70;;;;;;4984792;28;20300;-68
2023/07/16 02:20:40;;;;;;;16.67;4.23;;;18.30;75.50;;;;;;4983257;28;20174;-69
2023/07/16 02:23:07;;;;;;;9.67;3.23;;;18.30;76.00;;;;;;4993318;28;20189;-68
2023/07/16 02:25:36;;;;;;;12.97;3.43;;;18.30;75.70;;;;;;4990246;28;20178;-66
2023/07/16 02:28:03;;;;;;;13.70;3.73;;;18.30;75.50;;;;;;4994365;28;20217;-66
2023/07/16 02:30:31;;;;;;;15.10;3.70;;;18.30;75.90;;;;;;4993778;28;20229;-65
2023/07/16 02:32:58;;;;;;;16.90;3.67;;;18.20;76.00;;;;;;4993925;28;20767;-66
2023/07/16 02:35:25;;;;;;;13.57;3.27;;;18.20;76.30;;;;;;4994787;28;20686;-66
2023/07/16 02:37:53;;;;;;;13.33;3.40;;;18.10;76.20;;;;;;4994835;28;20181;-66
2023/07/16 02:40:20;;;;;;;17.30;4.10;;;18.20;76.00;;;;;;4994465;28;20185;-67
2023/07/16 02:42:47;;;;;;;13.93;3.20;;;18.30;75.70;;;;;;4994657;28;20186;-70
2023/07/16 02:45:15;;;;;;;17.10;3.90;;;18.30;75.20;;;;;;4994576;28;20178;-66
2023/07/16 02:47:42;;;;;;;14.03;3.33;;;18.30;74.90;;;;;;4994204;28;20273;-68
2023/07/16 02:50:10;;;;;;;15.37;3.37;;;18.50;74.90;;;;;;4994493;28;20218;-66
2023/07/16 02:52:37;;;;;;;19.80;3.37;;;18.50;74.60;;;;;;4994521;28;20226;-72
2023/07/16 02:55:05;;;;;;;10.80;3.23;;;18.60;74.40;;;;;;4994381;28;20214;-66
2023/07/16 02:57:32;;;;;;;11.83;3.07;;;18.70;74.40;;;;;;4994311;28;20581;-71
2023/07/16 02:59:59;;;;;;;22.63;3.80;;;18.80;74.10;;;;;;4994140;28;20188;-66
2023/07/16 03:02:27;;;;;;;16.40;3.50;;;18.80;73.70;;;;;;4994004;28;20196;-68
2023/07/16 03:04:54;;;;;;;8.37;3.00;;;18.80;73.50;;;;;;4994203;28;20180;-68
2023/07/16 03:07:22;;;;;;;12.17;3.17;;;18.70;74.00;;;;;;4994267;28;20705;-67
2023/07/16 03:09:49;;;;;;;12.40;3.10;;;18.60;74.50;;;;;;4994050;28;20182;-74
2023/07/16 03:12:16;;;;;;;13.07;3.17;;;18.50;74.40;;;;;;4994057;28;20348;-72
2023/07/16 03:14:44;;;;;;;19.73;4.00;;;18.30;74.80;;;;;;4994231;28;21041;-70
2023/07/16 03:17:11;;;;;;;19.83;3.67;;;18.20;75.80;;;;;;4993091;28;20189;-72
2023/07/16 03:19:39;;;;;;;9.80;2.70;;;18.00;76.10;;;;;;4993873;28;20181;-69
2023/07/16 03:22:06;;;;;;;18.23;3.70;;;18.00;76.70;;;;;;4993650;28;20174;-67
2023/07/16 03:24:34;;;;;;;13.13;3.67;;;18.00;76.80;;;;;;4993838;28;20184;-70
2023/07/16 03:27:01;;;;;;;13.50;3.77;;;18.00;76.90;;;;;;4994080;28;20249;-68
2023/07/16 03:29:28;;;;;;;12.57;3.33;;;18.00;76.60;;;;;;4993460;28;20670;-66
2023/07/16 03:31:56;;;;;;;9.30;2.90;;;17.80;76.30;;;;;;4990291;28;20225;-69
2023/07/16 03:34:23;;;;;;;11.67;3.07;;;17.80;76.50;;;;;;4992134;28;20225;-72
2023/07/16 03:36:51;;;;;;;15.70;3.30;;;17.70;76.80;;;;;;4990789;28;20190;-67
2023/07/16 03:39:18;;;;;;;12.80;3.20;;;17.60;77.60;;;;;;4991522;28;20192;-66
2023/07/16 03:41:46;;;;;;;13.63;3.07;;;17.60;78.10;;;;;;4988464;28;20193;-69
2023/07/16 03:44:13;;;;;;;12.20;3.13;;;17.60;78.90;;;;;;4992373;28;20182;-68
2023/07/16 03:46:40;;;;;;;12.20;3.17;;;17.50;78.80;;;;;;4991292;28;20198;-67
2023/07/16 03:49:08;;;;;;;10.73;2.67;;;17.30;78.70;;;;;;4992967;28;20244;-69
2023/07/16 03:51:36;;;;;;;12.03;3.30;;;17.20;79.20;;;;;;4990337;28;20248;-69
2023/07/16 03:54:03;;;;;;;10.27;3.17;;;17.10;80.20;;;;;;4992866;28;20605;-67
2023/07/16 03:56:30;;;;;;;14.37;3.10;;;17.00;81.40;;;;;;4992762;28;20193;-68
2023/07/16 03:58:58;;;;;;;14.23;3.23;;;16.80;81.30;;;;;;4992611;28;20265;-66
2023/07/16 04:01:25;;;;;;;6.57;2.50;;;16.60;82.20;;;;;;4991738;28;20186;-66
2023/07/16 04:03:52;;;;;;;14.23;2.90;;;16.60;83.20;;;;;;4993426;28;20643;-67
2023/07/16 04:06:19;;;;;;;9.90;3.30;;;16.50;83.90;;;;;;4988454;28;20185;-66
2023/07/16 04:08:47;;;;;;;11.37;4.77;;;16.50;84.60;;;;;;4989194;28;20236;-65
2023/07/16 04:11:14;;;;;;;14.80;5.00;;;16.40;85.10;;;;;;4989799;28;20220;-66
2023/07/16 04:13:41;;;;;;;19.60;4.97;;;16.40;86.00;;;;;;4993128;28;20245;-69
2023/07/16 04:16:09;;;;;;;15.43;5.53;;;16.30;86.40;;;;;;4989956;28;20217;-65
2023/07/16 04:18:36;;;;;;;9.67;4.20;;;16.40;86.80;;;;;;4991568;28;20250;-74
2023/07/16 04:21:04;;;;;;;18.27;5.40;;;16.30;87.00;;;;;;4993020;28;20177;-71
2023/07/16 04:23:31;;;;;;;14.57;4.63;;;16.30;87.00;;;;;;4992998;28;20182;-65
2023/07/16 04:25:58;;;;;;;13.50;5.20;;;16.30;87.50;;;;;;4991986;28;20179;-67
2023/07/16 04:28:25;;;;;;;12.23;5.07;;;16.30;87.90;;;;;;4990513;28;20188;-69
2023/07/16 04:30:53;;;;;;;13.83;5.50;;;16.40;88.30;;;;;;4991516;28;20233;-67
2023/07/16 04:33:20;;;;;;;12.90;5.27;;;16.50;88.40;;;;;;4993814;28;20216;-65
2023/07/16 04:35:48;;;;;;;17.77;4.53;;;16.70;88.50;;;;;;4997185;28;20178;-66
2023/07/16 04:38:15;;;;;;;11.33;5.20;;;16.80;88.30;;;;;;5001612;28;20201;-71
2023/07/16 04:40:43;;;;;;;12.27;5.37;;;16.80;87.80;;;;;;4996739;28;20184;-69
2023/07/16 04:43:10;;;;;;;16.97;5.70;;;16.80;87.20;;;;;;4996819;28;20272;-69
2023/07/16 04:45:39;;;;;;;12.37;5.40;;;16.90;86.90;;;;;;4997089;28;20232;-66
2023/07/16 04:48:07;;;;;;;11.57;5.20;;;17.00;86.40;;;;;;4994880;28;20181;-73
2023/07/16 04:50:34;;;;;;;14.43;5.93;;;17.00;86.30;;;;;;4989263;28;20200;-66
2023/07/16 04:53:01;;;;;;;10.50;5.60;;;17.00;86.00;;;;;;4980037;28;20275;-73
2023/07/16 04:55:29;;;;;;;10.30;5.27;;;17.10;86.00;;;;;;4995270;28;20659;-65
2023/07/16 04:57:56;;;;;;;13.63;4.63;;;17.20;86.30;;;;;;4996321;28;20202;-75
2023/07/16 05:00:24;;;;;;;14.70;4.90;;;17.10;85.60;;;;;;4995845;28;20561;-71
2023/07/16 05:02:51;;;;;;;8.33;4.10;;;17.00;85.80;;;;;;4995450;28;20185;-70
2023/07/16 05:05:18;;;;;;;10.27;4.33;;;17.00;85.80;;;;;;4983318;28;20189;-64
2023/07/16 05:07:46;;;;;;;9.30;5.23;;;16.90;86.00;;;;;;4988393;28;20511;-66
2023/07/16 05:10:13;;;;;;;9.57;4.67;;;17.00;86.40;;;;;;4989380;28;20181;-75
2023/07/16 05:12:40;;;;;;;11.87;4.97;;;16.90;86.20;;;;;;4978844;28;20519;-66
2023/07/16 05:15:08;;;;;;;11.50;5.00;;;16.90;86.30;;;;;;4993856;28;20185;-66
2023/07/16 05:17:36;;;;;;;12.77;5.10;;;16.90;86.30;;;;;;4990041;28;20189;-65
2023/07/16 05:20:06;;;;;;;11.03;4.73;;;16.90;86.80;;;;;;4994037;28;20669;-65
2023/07/16 05:22:34;;;;;;;10.70;4.70;;;17.00;86.90;;;;;;4994805;28;20196;-65
2023/07/16 05:25:01;;;;;;;14.53;4.73;;;16.90;86.50;;;;;;4994693;28;20174;-66
2023/07/16 05:27:29;;;;;;;10.83;4.87;;;17.00;86.70;;;;;;4993396;28;20678;-66
2023/07/16 05:29:57;;;;;;;11.20;5.20;;;16.80;86.00;;;;;;4993963;28;20225;-66
2023/07/16 05:32:25;;;;;;;13.07;5.10;;;16.70;86.20;;;;;;4991080;28;20219;-65
2023/07/16 05:34:52;;;;;;;9.83;4.97;;;16.60;86.40;;;;;;4995891;28;20239;-65
2023/07/16 05:37:19;;;;;;;16.27;6.17;;;16.50;86.60;;;;;;4994976;28;20691;-64
2023/07/16 05:39:47;;;;;;;14.47;5.63;;;16.30;86.80;;;;;;4993798;28;20174;-65
2023/07/16 05:42:14;;;;;;;14.47;4.93;;;16.30;86.90;;;;;;4987525;28;20267;-65
2023/07/16 05:44:42;;;;;;;14.37;5.53;;;16.20;87.00;;;;;;4992558;28;20184;-66
2023/07/16 05:47:10;;;;;;;15.53;5.93;;;16.20;87.40;;;;;;4991054;28;20190;-65
2023/07/16 05:49:37;;;;;;;14.77;6.00;;;16.20;87.60;;;;;;4995465;28;20182;-66
2023/07/16 05:52:05;;;;;;;19.80;6.47;;;16.20;87.70;;;;;;4994576;28;20247;-65
2023/07/16 05:54:32;;;;;;;14.47;6.83;;;16.20;87.80;;;;;;4986169;28;20210;-65
2023/07/16 05:57:00;;;;;;;21.03;6.90;;;16.10;87.70;;;;;;4989389;28;20560;-65
2023/07/16 05:59:27;;;;;;;15.30;6.70;;;16.20;88.10;;;;;;4993492;28;20198;-66
2023/07/16 06:01:57;;;;;;;19.27;6.80;;;16.20;88.40;;;;;;4991884;28;20190;-65
2023/07/16 06:04:25;;;;;;;15.07;7.40;;;16.20;88.60;;;;;;4989059;28;20187;-65
2023/07/16 06:06:52;;;;;;;16.40;7.60;;;16.10;88.60;;;;;;4982408;28;20650;-66
2023/07/16 06:09:19;;;;;;;16.57;7.50;;;16.10;88.80;;;;;;4994887;28;20587;-65
2023/07/16 06:11:50;;;;;;;18.17;7.53;;;16.10;88.80;;;;;;4991175;28;20216;-65
2023/07/16 06:14:17;;;;;;;19.97;7.40;;;16.00;88.80;;;;;;4993451;28;20183;-65
2023/07/16 06:16:44;;;;;;;13.67;7.63;;;15.90;88.90;;;;;;4995092;28;20211;-65
2023/07/16 06:19:12;;;;;;;15.87;7.67;;;15.90;89.00;;;;;;4994224;28;20215;-65
2023/07/16 06:21:39;;;;;;;16.63;7.73;;;16.00;89.20;;;;;;4991812;28;20675;-67
2023/07/16 06:24:06;;;;;;;15.90;8.37;;;16.00;89.20;;;;;;4995071;28;20208;-67
2023/07/16 06:26:34;;;;;;;18.70;8.43;;;15.90;89.20;;;;;;4993393;28;20260;-66
2023/07/16 06:29:01;;;;;;;17.60;8.10;;;15.90;89.50;;;;;;4994875;28;20245;-65
2023/07/16 06:31:28;;;;;;;13.63;8.03;;;15.90;89.40;;;;;;4984011;28;20229;-65
2023/07/16 06:33:56;;;;;;;17.10;8.20;;;15.80;89.00;;;;;;4990864;28;20730;-65
2023/07/16 06:36:23;;;;;;;11.67;8.27;;;15.70;89.10;;;;;;4991842;28;20225;-65
2023/07/16 06:38:50;;;;;;;16.27;8.33;;;15.70;89.20;;;;;;4992152;28;20669;-65
2023/07/16 06:41:19;;;;;;;19.47;8.17;;;15.70;89.20;;;;;;4993204;28;20187;-65
2023/07/16 06:43:46;;;;;;;13.93;8.03;;;15.60;89.10;;;;;;4975306;28;20555;-66
2023/07/16 06:46:13;;;;;;;22.10;8.90;;;15.70;89.20;;;;;;4993818;28;20188;-66
2023/07/16 06:48:41;;;;;;;19.67;9.43;;;15.70;89.20;;;;;;4999242;28;20188;-66
2023/07/16 06:51:08;;;;;;;18.03;9.00;;;15.70;89.30;;;;;;4986154;28;20186;-66
2023/07/16 06:53:35;;;;;;;15.63;9.23;;;15.60;89.30;;;;;;4993959;28;20216;-65
2023/07/16 06:56:03;;;;;;;18.83;8.80;;;15.60;89.20;;;;;;4994511;28;20356;-66
2023/07/16 06:58:34;;;;;;;14.33;8.57;;;15.60;89.40;;;;;;4976981;28;20194;-66
2023/07/16 07:01:01;;;;;;;16.37;9.63;;;15.50;89.40;;;;;;4993742;28;20242;-68
2023/07/16 07:03:29;;;;;;;17.70;9.50;;;15.60;89.40;;;;;;4993769;28;20182;-66
2023/07/16 07:05:56;;;;;;;14.33;9.97;;;15.50;89.40;;;;;;4994239;28;20186;-66
2023/07/16 07:08:24;;;;;;;21.47;9.33;;;15.50;89.50;;;;;;4992374;28;20179;-65
2023/07/16 07:10:51;;;;;;;16.50;9.20;;;15.50;89.60;;;;;;4986443;28;20318;-65
2023/07/16 07:13:18;;;;;;;17.23;10.53;;;15.50;89.60;;;;;;4991635;28;20297;-67
2023/07/16 07:15:45;;;;;;;13.80;10.33;;;15.40;89.70;;;;;;4992091;28;20186;-65
2023/07/16 07:18:13;;;;;;;17.90;10.97;;;15.40;89.70;;;;;;4991320;28;20225;-65
2023/07/16 07:20:43;;;;;;;20.23;12.17;;;15.40;89.80;;;;;;4994156;28;20181;-67
2023/07/16 07:23:11;;;;;;;18.67;11.83;;;15.40;89.80;;;;;;4992173;28;20269;-67
2023/07/16 07:25:38;;;;;;;19.97;12.20;;;15.40;90.00;;;;;;4992931;28;20189;-65
2023/07/16 07:28:05;;;;;;;20.23;13.30;;;15.40;89.90;;;;;;4993120;28;20686;-66
2023/07/16 07:30:33;;;;;;;19.83;14.00;;;15.30;89.90;;;;;;4991052;28;20221;-65
2023/07/16 07:33:00;;;;;;;17.33;14.07;;;15.30;90.10;;;;;;4980617;28;20210;-65
2023/07/16 07:35:27;;;;;;;20.87;13.37;;;15.30;90.20;;;;;;4985985;28;20201;-66
2023/07/16 07:37:55;;;;;;;21.50;14.50;;;15.40;90.40;;;;;;4980767;28;20192;-66
2023/07/16 07:40:22;;;;;;;18.80;14.70;;;15.40;90.40;;;;;;4992129;28;20192;-68
2023/07/16 07:42:49;;;;;;;18.63;15.23;;;15.40;90.20;;;;;;4986819;28;20557;-65
2023/07/16 07:45:16;;;;;;;19.97;16.63;;;15.30;90.30;;;;;;4991840;28;20186;-66
2023/07/16 07:47:44;;;;;;;19.10;17.03;;;15.40;90.30;;;;;;4987437;28;20648;-67
2023/07/16 07:50:11;;;;;;;20.77;17.50;;;15.40;90.40;;;;;;4991551;28;20183;-66
2023/07/16 07:52:39;;;;;;;19.73;17.73;;;15.50;90.50;;;;;;4990460;28;20601;-67
2023/07/16 07:55:06;;;;;;;21.53;18.50;;;15.50;90.50;;;;;;4992000;28;20181;-66
2023/07/16 07:57:34;;;;;;;21.40;18.73;;;15.50;90.60;;;;;;4990466;28;20208;-66
2023/07/16 08:00:01;;;;;;;25.30;18.63;;;15.50;90.60;;;;;;4988199;28;20222;-66
2023/07/16 08:02:28;;;;;;;22.40;17.63;;;15.60;90.50;;;;;;4989524;28;20187;-68
2023/07/16 08:04:56;;;;;;;22.47;19.47;;;15.60;90.50;;;;;;4984397;28;20178;-68
2023/07/16 08:07:25;;;;;;;24.80;19.63;;;15.50;90.40;;;;;;4991975;28;20233;-69
2023/07/16 08:09:52;;;;;;;23.00;18.63;;;15.50;90.30;;;;;;4992604;28;20186;-66
2023/07/16 08:12:20;;;;;;;22.83;17.47;;;15.50;90.20;;;;;;4993314;28;20201;-70
2023/07/16 08:14:48;;;;;;;24.87;17.03;;;15.50;90.40;;;;;;4991209;28;20559;-67
2023/07/16 08:17:15;;;;;;;20.07;18.03;;;15.50;90.40;;;;;;4991878;28;20268;-71
2023/07/16 08:19:43;;;;;;;22.67;16.97;;;15.50;90.10;;;;;;4975632;28;20185;-68
2023/07/16 08:22:11;;;;;;;26.87;19.20;;;15.50;90.00;;;;;;4992888;28;20293;-66
2023/07/16 08:24:38;;;;;;;27.63;19.70;;;15.50;90.10;;;;;;4988260;28;20207;-68
2023/07/16 08:27:06;;;;;;;22.73;20.63;;;15.50;90.00;;;;;;4982142;28;20195;-68
2023/07/16 08:29:36;;;;;;;24.77;21.00;;;15.40;89.90;;;;;;4991305;28;20187;-70
2023/07/16 08:32:04;;;;;;;23.30;20.97;;;15.40;90.10;;;;;;4992090;28;20709;-72
2023/07/16 08:34:31;;;;;;;23.37;20.87;;;15.40;90.10;;;;;;4991846;28;20575;-65
2023/07/16 08:36:59;;;;;;;22.47;20.17;;;15.40;90.10;;;;;;4991934;28;20182;-73
2023/07/16 08:39:26;;;;;;;28.27;22.17;;;15.40;90.30;;;;;;4992216;28;20196;-66
2023/07/16 08:41:53;;;;;;;22.83;20.40;;;15.50;90.30;;;;;;4993072;28;20188;-70
2023/07/16 08:44:21;;;;;;;24.00;20.10;;;15.50;90.40;;;;;;4992267;28;20206;-71
2023/07/16 08:46:49;;;;;;;25.03;21.60;;;15.50;90.30;;;;;;4992069;28;20203;-66
2023/07/16 08:49:20;;;;;;;24.70;22.20;;;15.50;90.30;;;;;;4992578;28;20178;-65
2023/07/16 08:51:49;;;;;;;23.77;21.53;;;15.50;90.30;;;;;;4992715;28;20257;-66
2023/07/16 08:54:17;;;;;;;24.20;21.87;;;15.50;90.30;;;;;;4993080;28;20179;-65
2023/07/16 08:56:45;;;;;;;36.07;24.90;;;15.50;90.10;;;;;;4992468;28;20198;-69
2023/07/16 08:59:14;;;;;;;27.97;25.37;;;15.50;90.20;;;;;;4992261;28;20186;-66
2023/07/16 09:01:42;;;;;;;27.10;24.27;;;15.40;90.20;;;;;;4992754;28;20194;-66
2023/07/16 09:04:09;;;;;;;29.47;26.47;;;15.50;90.40;;;;;;4991771;28;20182;-66
2023/07/16 09:06:36;;;;;;;29.13;26.67;;;15.50;90.40;;;;;;4990570;28;20546;-66
2023/07/16 09:09:04;;;;;;;33.13;29.60;;;15.40;90.30;;;;;;4992815;28;20178;-65
2023/07/16 09:11:31;;;;;;;31.03;28.30;;;15.40;90.40;;;;;;4991074;28;20216;-64
2023/07/16 09:14:01;;;;;;;30.27;27.37;;;15.40;90.50;;;;;;4991687;28;20239;-65
2023/07/16 09:16:34;;;;;;;30.07;27.57;;;15.40;90.40;;;;;;4990633;28;20652;-65
2023/07/16 09:19:27;;;;;;;33.67;30.50;;;15.40;90.50;;;;;;4985650;28;20182;-65
2023/07/16 09:21:54;;;;;;;32.83;29.47;;;15.40;90.40;;;;;;4969588;28;20555;-65
2023/07/16 09:24:21;;;;;;;29.90;27.10;;;15.40;90.70;;;;;;4995004;28;20544;-66
2023/07/16 09:26:54;;;;;;;32.37;29.03;;;15.40;90.60;;;;;;4995557;28;20186;-65
2023/07/16 09:29:22;;;;;;;35.90;32.50;;;15.40;90.60;;;;;;4994819;28;20194;-65
2023/07/16 09:32:00;;;;;;;35.97;32.33;;;15.40;90.60;;;;;;4985062;28;20239;-68
2023/07/16 09:34:31;;;;;;;37.90;34.37;;;15.40;90.60;;;;;;4987318;28;20399;-69
2023/07/16 09:37:02;;;;;;;39.97;35.93;;;15.40;90.60;;;;;;4996774;28;20225;-68
2023/07/16 09:39:31;;;;;;;39.37;35.83;;;15.40;90.50;;;;;;4995557;28;20203;-74
2023/07/16 09:41:59;;;;;;;39.90;36.37;;;15.30;90.60;;;;;;4995778;28;20182;-71
2023/07/16 09:44:27;;;;;;;39.07;35.53;;;15.40;90.60;;;;;;4992829;28;20194;-73
2023/07/16 09:46:54;;;;;;;39.70;36.17;;;15.30;90.60;;;;;;4995924;28;20190;-65
2023/07/16 09:49:21;;;;;;;43.77;37.37;;;15.40;90.70;;;;;;4995351;28;20188;-65
2023/07/16 09:51:51;;;;;;;36.10;33.10;;;15.30;90.60;;;;;;4993799;28;20693;-72
2023/07/16 09:54:19;;;;;;;41.00;37.27;;;15.30;90.90;;;;;;4995595;28;20193;-69
2023/07/16 09:56:53;;;;;;;40.60;36.90;;;15.30;90.70;;;;;;4995155;28;20212;-72
2023/07/16 09:59:25;;;;;;;41.90;38.27;;;15.30;90.80;;;;;;4993815;28;20192;-71
2023/07/16 10:01:55;;;;;;;45.20;41.03;;;15.30;90.90;;;;;;4992975;28;20209;-65
2023/07/16 10:04:22;;;;;;;42.43;38.90;;;15.30;91.00;;;;;;4994600;28;20636;-65
2023/07/16 10:06:53;;;;;;;42.53;39.10;;;15.30;91.00;;;;;;4994187;28;20753;-66
2023/07/16 10:09:40;;;;;;;42.77;39.33;;;15.30;91.20;;;;;;4994739;28;20218;-65
2023/07/16 10:12:20;;;;;;;46.17;42.07;;;15.20;91.10;;;;;;4982928;28;20218;-67
2023/07/16 10:14:49;;;;;;;44.50;40.53;;;15.20;91.00;;;;;;4989886;28;20199;-66
2023/07/16 10:17:19;;;;;;;48.07;43.73;;;15.20;91.30;;;;;;4984116;28;20289;-67
2023/07/16 10:19:50;;;;;;;48.30;44.20;;;15.10;91.20;;;;;;4993936;28;20187;-75
2023/07/16 10:22:31;;;;;;;48.07;43.97;;;15.10;91.30;;;;;;4995214;28;20208;-67
2023/07/16 10:24:58;;;;;;;50.50;46.03;;;15.20;91.50;;;;;;4994614;28;20186;-71
2023/07/16 10:27:35;;;;;;;52.90;48.37;;;15.10;91.30;;;;;;4988455;28;20186;-66
2023/07/16 10:30:05;;;;;;;53.13;48.53;;;15.10;91.50;;;;;;4992579;28;20562;-65
2023/07/16 10:32:34;;;;;;;54.27;49.67;;;15.10;91.40;;;;;;4993809;28;20206;-66
2023/07/16 10:35:02;;;;;;;50.57;46.33;;;15.10;91.50;;;;;;4992425;28;20195;-65
2023/07/16 10:37:30;;;;;;;54.70;50.13;;;15.10;91.60;;;;;;4992710;28;20256;-65
2023/07/16 10:39:59;;;;;;;49.97;46.00;;;15.00;91.60;;;;;;4993744;28;20189;-65
2023/07/16 10:42:27;;;;;;;54.93;49.23;;;15.10;91.60;;;;;;4993770;28;20234;-66
2023/07/16 10:45:00;;;;;;;52.70;48.20;;;15.10;91.70;;;;;;4994139;28;20182;-66
2023/07/16 10:47:37;;;;;;;54.33;49.73;;;15.10;91.70;;;;;;4989769;28;20244;-65
2023/07/16 10:50:07;;;;;;;57.53;52.90;;;15.20;91.80;;;;;;4992873;28;20185;-65
2023/07/16 10:52:37;;;;;;;57.40;52.73;;;15.10;91.70;;;;;;4990746;28;20216;-65
2023/07/16 10:55:05;;;;;;;58.13;53.37;;;15.10;91.70;;;;;;4994078;28;20644;-65
2023/07/16 10:57:32;;;;;;;56.03;50.90;;;15.20;91.80;;;;;;4993792;28;20524;-65
2023/07/16 11:00:00;;;;;;;55.23;51.07;;;15.10;91.70;;;;;;4988890;28;20189;-65
2023/07/16 11:02:28;;;;;;;58.97;54.17;;;15.20;91.90;;;;;;4991032;28;20190;-65
2023/07/16 11:04:57;;;;;;;57.93;53.50;;;15.10;91.70;;;;;;4992631;28;20242;-66
2023/07/16 11:07:24;;;;;;;57.60;53.23;;;15.10;91.60;;;;;;4993240;28;20174;-66
2023/07/16 11:09:54;;;;;;;58.10;53.90;;;15.10;91.80;;;;;;4992582;28;20197;-64
2023/07/16 11:12:24;;;;;;;59.27;54.13;;;15.10;91.80;;;;;;4992061;28;20249;-65
2023/07/16 11:14:54;;;;;;;59.80;54.90;;;15.10;91.70;;;;;;4992046;28;20213;-64
2023/07/16 11:17:23;;;;;;;60.50;55.80;;;15.00;91.70;;;;;;4994248;28;20648;-65
2023/07/16 11:19:52;;;;;;;61.93;57.33;;;15.00;91.70;;;;;;4992589;28;20190;-67
2023/07/16 11:22:20;;;;;;;62.53;57.63;;;15.00;91.80;;;;;;4994074;28;20275;-66
2023/07/16 11:24:50;;;;;;;58.10;53.30;;;15.00;91.70;;;;;;4991804;28;20272;-66
2023/07/16 11:27:26;;;;;;;62.57;57.73;;;15.00;91.80;;;;;;4991652;28;20674;-65
2023/07/16 11:29:58;;;;;;;64.07;59.17;;;15.00;91.70;;;;;;4984294;28;20602;-65
2023/07/16 11:32:58;;;;;;;63.37;58.33;;;15.00;91.70;;;;;;4990082;28;20218;-65
2023/07/16 11:35:26;;;;;;;63.77;58.87;;;14.90;91.80;;;;;;4981531;28;20553;-66
2023/07/16 11:37:55;;;;;;;65.20;60.43;;;14.90;91.80;;;;;;4990665;28;20190;-65
2023/07/16 11:40:22;;;;;;;67.07;62.03;;;14.90;91.90;;;;;;4984854;28;20181;-65
2023/07/16 11:42:49;;;;;;;67.37;62.03;;;14.90;92.00;;;;;;4992127;28;20272;-65
2023/07/16 11:45:23;;;;;;;70.03;65.00;;;14.90;91.90;;;;;;4989654;28;20660;-65
2023/07/16 11:47:50;;;;;;;70.77;65.50;;;14.80;92.00;;;;;;4991731;28;20663;-65
2023/07/16 11:50:17;;;;;;;73.47;67.90;;;14.80;92.00;;;;;;4986992;28;20707;-65
2023/07/16 11:52:54;;;;;;;73.97;68.53;;;14.80;92.10;;;;;;4992207;28;20728;-75
2023/07/16 11:55:21;;;;;;;71.27;66.13;;;14.80;92.20;;;;;;4992954;28;20268;-65
2023/07/16 11:57:49;;;;;;;75.13;69.33;;;14.80;92.20;;;;;;4992476;28;20178;-65
2023/07/16 12:00:17;;;;;;;73.13;67.80;;;14.80;92.20;;;;;;4993501;28;20197;-65
2023/07/16 12:02:52;;;;;;;76.80;71.13;;;14.80;92.10;;;;;;4993650;28;20186;-70
2023/07/16 12:05:20;;;;;;;75.57;70.27;;;14.80;92.20;;;;;;4993301;28;20195;-69
2023/07/16 12:07:48;;;;;;;76.40;71.03;;;14.80;92.20;;;;;;4991253;28;20188;-65
2023/07/16 12:10:15;;;;;;;79.13;73.53;;;14.80;92.10;;;;;;4983511;28;20193;-66
2023/07/16 12:12:42;;;;;;;83.60;77.70;;;14.80;92.20;;;;;;4984547;28;20213;-70
2023/07/16 12:15:10;;;;;;;86.23;80.20;;;14.80;92.10;;;;;;4990467;28;20178;-65
2023/07/16 12:17:37;;;;;;;86.40;80.07;;;14.80;92.10;;;;;;4986548;28;20223;-73
2023/07/16 12:20:05;;;;;;;91.67;85.83;;;14.70;92.10;;;;;;4988107;28;20193;-65
2023/07/16 12:22:33;;;;;;;90.13;84.17;;;14.60;92.10;;;;;;4989445;28;20221;-73
2023/07/16 12:25:01;;;;;;;93.43;86.93;;;14.60;92.20;;;;;;4993394;28;20194;-71
2023/07/16 12:27:28;;;;;;;92.47;86.33;;;14.60;92.40;;;;;;4982938;28;20187;-68
2023/07/16 12:29:55;;;;;;;90.17;83.53;;;14.60;92.30;;;;;;4991926;28;20292;-65
2023/07/16 12:32:23;;;;;;;92.40;86.50;;;14.60;92.50;;;;;;4990705;28;20706;-72
2023/07/16 12:34:50;;;;;;;92.93;86.83;;;14.60;92.50;;;;;;4992371;28;20178;-64
2023/07/16 12:37:17;;;;;;;95.10;88.23;;;14.60;92.50;;;;;;4991168;28;20182;-64
2023/07/16 12:39:45;;;;;;;94.30;88.03;;;14.60;92.50;;;;;;4981423;28;20680;-63
2023/07/16 12:42:12;;;;;;;93.10;86.70;;;14.60;92.50;;;;;;4992478;28;20210;-64
2023/07/16 12:44:40;;;;;;;94.93;88.77;;;14.60;92.60;;;;;;4987964;28;20186;-64
2023/07/16 12:47:10;;;;;;;97.80;90.87;;;14.60;92.60;;;;;;4993003;28;20197;-64